»·PEaware :: GAJ250 KNXP-KPHX

GAJ250 :: KNXP-KPHX

FLIGHT INFORMATION

Flight Status: Arrived
Operator: Unknown
More flights by this operator :: More flights under this callsign
Pilot: Andrew J. (13363)
Aircraft: BEECH AIRCRAFT SUPER KING AIR COMMUTER
(BE20)
More flights by this aircraft type
Origin: KNXP Twentynine Palms EAF
United States
Destination: KPHX Phoenix Sky Harbor Intl
United States
More flights between these airports :: More routes between these airports
Route: TNP BLH BLH5
File this flight plan on PilotEdge
Remarks:
Altitude:
(Current/Filed)
23,000ft
Speed:
(Current/Filed)
215kts
Departed: 08-Feb-18 05:38 PM
Arrived: 08-Feb-18 06:40 PM
Distance/Time
Traveled:
213nm/1:02
Distance/Time
To Go:
Arrived

Flight Plot

Page will automatically refresh every two minutes.

Flight plan parsing failed; only flown route is shown


Map Options




Map Legend


Flown Route
Filed Route
Departure Airport
Arrival Airport
Navaid (VOR, NDB)
Fix

Horizontal Profiles

Position Reports

Time Latitude Longitude Heading Altitude Ground
Speed
08-Feb-18 17:38 34.300027 -116.166928 296 2015ft 0kts
08-Feb-18 17:39 34.300027 -116.166929 296 2015ft 0kts
08-Feb-18 17:40 34.300027 -116.166929 296 2015ft 0kts
08-Feb-18 17:41 34.300027 -116.166929 296 2015ft 0kts
08-Feb-18 17:42 34.299282 -116.167812 213 2026ft 23kts
08-Feb-18 17:43 34.300059 -116.173688 89 2031ft 8kts
08-Feb-18 17:44 34.291220 -116.148543 113 2711ft 131kts
08-Feb-18 17:45 34.272223 -116.104855 117 5008ft 151kts
08-Feb-18 17:46 34.251421 -116.059438 118 7313ft 172kts
08-Feb-18 17:47 34.225233 -116.003164 118 9271ft 198kts
08-Feb-18 17:48 34.199071 -115.947536 116 11835ft 181kts
08-Feb-18 17:49 34.174212 -115.894292 116 13872ft 187kts
08-Feb-18 17:50 34.148219 -115.838843 116 15676ft 193kts
08-Feb-18 17:51 34.121497 -115.781980 116 17268ft 198kts
08-Feb-18 17:52 34.101027 -115.720137 105 18682ft 201kts
08-Feb-18 17:53 34.083553 -115.655564 103 19945ft 205kts
08-Feb-18 17:54 34.066543 -115.589521 103 21064ft 208kts
08-Feb-18 17:55 34.049342 -115.522236 103 22060ft 212kts
08-Feb-18 17:57 34.031886 -115.454011 103 22940ft 215kts
08-Feb-18 17:58 34.013447 -115.381994 103 23189ft 239kts
08-Feb-18 17:59 33.993565 -115.304789 104 23157ft 254kts
08-Feb-18 18:00 33.972192 -115.222025 104 23026ft 264kts
08-Feb-18 18:01 33.949940 -115.136152 104 23024ft 272kts
08-Feb-18 18:02 33.910919 -115.060087 139 23025ft 280kts
08-Feb-18 18:03 33.850833 -115.002489 139 23020ft 281kts
08-Feb-18 18:04 33.789867 -114.944405 139 23047ft 281kts
08-Feb-18 18:05 33.728608 -114.886170 139 23047ft 281kts
08-Feb-18 18:06 33.667167 -114.827869 139 23047ft 282kts
08-Feb-18 18:07 33.606189 -114.769450 130 23038ft 280kts
08-Feb-18 18:08 33.589946 -114.681400 93 23048ft 272kts
08-Feb-18 18:09 33.581667 -114.591078 93 23048ft 273kts
08-Feb-18 18:10 33.573569 -114.500762 93 23048ft 273kts
08-Feb-18 18:11 33.565408 -114.410193 93 23048ft 275kts
08-Feb-18 18:12 33.557930 -114.327865 93 23048ft 276kts
08-Feb-18 18:13 33.552382 -114.267164 93 23048ft 277kts
08-Feb-18 18:14 33.543914 -114.175159 93 23048ft 277kts
08-Feb-18 18:15 33.535400 -114.083409 93 23048ft 277kts
08-Feb-18 18:16 33.526868 -113.992189 93 23047ft 278kts
08-Feb-18 18:17 33.518217 -113.900333 93 23048ft 278kts
08-Feb-18 18:18 33.484340 -113.816507 116 23048ft 282kts
08-Feb-18 18:19 33.446589 -113.733908 116 23048ft 282kts
08-Feb-18 18:20 33.408751 -113.651123 116 22725ft 291kts
08-Feb-18 18:21 33.368753 -113.563815 116 21444ft 305kts
08-Feb-18 18:22 33.327751 -113.474578 116 20153ft 306kts
08-Feb-18 18:23 33.287625 -113.387454 116 18850ft 296kts
08-Feb-18 18:24 33.269718 -113.340232 92 18142ft 289kts
08-Feb-18 18:25 33.270666 -113.254950 86 16996ft 286kts
08-Feb-18 18:26 33.273187 -113.160249 85 15702ft 285kts
08-Feb-18 18:27 33.275731 -113.065775 86 14408ft 284kts
08-Feb-18 18:28 33.278172 -112.971757 86 13118ft 284kts
08-Feb-18 18:29 33.280548 -112.877436 86 11819ft 283kts
08-Feb-18 18:30 33.282762 -112.785395 86 11438ft 253kts
08-Feb-18 18:31 33.284842 -112.699209 86 10892ft 264kts
08-Feb-18 18:32 33.286874 -112.611538 86 10299ft 266kts
08-Feb-18 18:33 33.288212 -112.523240 86 9703ft 266kts
08-Feb-18 18:34 33.289974 -112.434602 86 9103ft 267kts
08-Feb-18 18:35 33.291818 -112.348950 88 8532ft 270kts
08-Feb-18 18:36 33.293307 -112.274045 88 8066ft 270kts
08-Feb-18 18:37 33.295022 -112.184781 88 7420ft 278kts
08-Feb-18 18:38 33.296684 -112.091664 88 6242ft 287kts
08-Feb-18 18:39 33.298479 -111.998132 87 5069ft 288kts
08-Feb-18 18:40 33.301110 -111.905202 87 3889ft 277kts
08-Feb-18 18:41 33.333550 -111.839264 359 3056ft 249kts
08-Feb-18 18:42 33.399712 -111.841887 356 3044ft 227kts
08-Feb-18 18:43 33.433790 -111.881864 265 2508ft 183kts
08-Feb-18 18:44 33.428680 -111.937681 267 2124ft 149kts
08-Feb-18 18:45 33.428780 -111.979417 272 1485ft 117kts
08-Feb-18 18:46 33.428877 -112.012921 270 1118ft 85kts
08-Feb-18 18:47 33.427843 -112.022395 247 1113ft 7kts
08-Feb-18 18:48 33.426600 -112.023684 273 1112ft 5kts
08-Feb-18 18:49 33.426611 -112.023762 280 1113ft 0kts
08-Feb-18 18:50 33.426611 -112.023762 280 1113ft 0kts
08-Feb-18 18:51 33.426611 -112.023762 280 1113ft 0kts
08-Feb-18 18:52 33.426611 -112.023762 280 1113ft 0kts
08-Feb-18 18:53 33.426611 -112.023762 280 1113ft 0kts
08-Feb-18 18:54 33.426611 -112.023762 280 1113ft 0kts
08-Feb-18 18:55 33.426611 -112.023762 280 1113ft 0kts

Navigation Log

Ident Type
Flight plan parsing failed, navigation log unavailable